Kellerton, IA (50133)

1:43 PM CST on December 03, 2016 (GMT -0600)
IEM | | Change Station

Elev 1180 ft 40.63 °N, 93.94 °W | Updated 24 minutes ago

Clear
Clear
43 °F
Feels Like 43 °F
N
0
Wind Variable Wind from North
Gusts 0.0 mph

Today
High -- | Low -- °F
--% Chance of Precip.
Yesterday
High -- | Low -- °F
Precip. -- in
Pressure 30.29 in
Visibility 10.0 miles
Clouds Clear
Windchill 43 °F
Dew Point 37 °F
Humidity 81%
Rainfall in
Snow Depth Not available.
7:23 AM 4:48 PM
Waxing Crescent, 16% visible
METAR KLWD 031853Z AUTO 13006KT 10SM CLR 04/00 A3025 RMK AO2 SLP256 T00440000
Pressure 30.29 in
Visibility 10.0 miles
Clouds Clear
Windchill 43 °F
Dew Point 37 °F
Humidity 81%
Rainfall in
Snow Depth Not available.
7:23 AM 4:48 PM
Waxing Crescent, 16% visible
METAR KLWD 031853Z AUTO 13006KT 10SM CLR 04/00 A3025 RMK AO2 SLP256 T00440000

10-Day Weather Forecast

Almanac

Astronomy

Dec. 03, 2016 Rise Set
Actual Time
Civil Twilight
Nautical Twilight
Astronomical Twilight
Moon
Length of Visible Light
Length of Day
Tomorrow will be .
, % of the Moon is Illuminated

Today's Extremes

State Highs State Lows

Community

WunderPhotos

Upload Photos

1,955,481 photos uploaded!

WunderBlog® & News

Nearby

Air Quality

  Air Quality AQ Index Pollutant
Not available.

Snow Depth

Station Depth Elevation

Earthquake Activity

City Distance Mag. Time & Date
Minimum magnitude displayed is 2.5.

Coastal Water Temperatures

Place Temperature

Stations

Nearby Weather Stations

Station Location Temp. Windchill Dew Point Humidity Wind Precip. Elev Updated Type
                   

Watches & Warnings

There are currently no watches in effect.